sensor_id;sensor_type;location;lat;lon;timestamp;P1;durP1;ratioP1;P2;durP2;ratioP2
3155;SDS011;1588;50.892;7.082;2022-10-16T00:04:22;3.20;;;2.70;;
3155;SDS011;1588;50.892;7.082;2022-10-16T00:09:25;8.67;;;3.40;;
3155;SDS011;1588;50.892;7.082;2022-10-16T00:14:28;4.20;;;2.33;;
3155;SDS011;1588;50.892;7.082;2022-10-16T00:19:30;2.97;;;2.13;;
3155;SDS011;1588;50.892;7.082;2022-10-16T00:24:34;4.50;;;3.10;;
3155;SDS011;1588;50.892;7.082;2022-10-16T00:29:38;3.73;;;2.23;;
3155;SDS011;1588;50.892;7.082;2022-10-16T00:34:41;4.53;;;2.50;;
3155;SDS011;1588;50.892;7.082;2022-10-16T00:39:44;4.63;;;2.53;;
3155;SDS011;1588;50.892;7.082;2022-10-16T00:44:48;2.73;;;2.17;;
3155;SDS011;1588;50.892;7.082;2022-10-16T00:49:56;7.17;;;2.57;;
3155;SDS011;1588;50.892;7.082;2022-10-16T00:55:03;8.00;;;2.40;;
3155;SDS011;1588;50.892;7.082;2022-10-16T01:00:10;6.90;;;2.40;;
3155;SDS011;1588;50.892;7.082;2022-10-16T01:05:17;3.60;;;2.40;;
3155;SDS011;1588;50.892;7.082;2022-10-16T01:10:27;8.03;;;3.00;;
3155;SDS011;1588;50.892;7.082;2022-10-16T01:15:37;2.83;;;2.27;;
3155;SDS011;1588;50.892;7.082;2022-10-16T01:20:44;2.90;;;2.20;;
3155;SDS011;1588;50.892;7.082;2022-10-16T01:31:35;8.47;;;2.50;;
3155;SDS011;1588;50.892;7.082;2022-10-16T01:36:41;3.87;;;2.27;;
3155;SDS011;1588;50.892;7.082;2022-10-16T01:41:48;4.70;;;2.40;;
3155;SDS011;1588;50.892;7.082;2022-10-16T01:46:56;2.53;;;1.97;;
3155;SDS011;1588;50.892;7.082;2022-10-16T01:51:59;2.67;;;1.97;;
3155;SDS011;1588;50.892;7.082;2022-10-16T01:57:04;3.47;;;2.43;;
3155;SDS011;1588;50.892;7.082;2022-10-16T02:02:11;2.23;;;2.03;;
3155;SDS011;1588;50.892;7.082;2022-10-16T02:07:18;4.50;;;2.10;;
3155;SDS011;1588;50.892;7.082;2022-10-16T02:12:24;2.40;;;2.10;;
3155;SDS011;1588;50.892;7.082;2022-10-16T02:17:48;7.73;;;2.00;;
3155;SDS011;1588;50.892;7.082;2022-10-16T02:22:51;4.70;;;2.47;;
3155;SDS011;1588;50.892;7.082;2022-10-16T02:27:56;4.03;;;2.10;;
3155;SDS011;1588;50.892;7.082;2022-10-16T02:33:05;2.90;;;2.40;;
3155;SDS011;1588;50.892;7.082;2022-10-16T02:38:10;7.10;;;2.20;;
3155;SDS011;1588;50.892;7.082;2022-10-16T02:43:14;3.30;;;2.13;;
3155;SDS011;1588;50.892;7.082;2022-10-16T02:48:17;3.73;;;2.27;;
3155;SDS011;1588;50.892;7.082;2022-10-16T02:53:19;4.20;;;2.13;;
3155;SDS011;1588;50.892;7.082;2022-10-16T02:58:22;5.40;;;2.77;;
3155;SDS011;1588;50.892;7.082;2022-10-16T03:03:25;11.20;;;3.00;;
3155;SDS011;1588;50.892;7.082;2022-10-16T03:08:27;3.00;;;2.50;;
3155;SDS011;1588;50.892;7.082;2022-10-16T03:13:30;3.60;;;2.50;;
3155;SDS011;1588;50.892;7.082;2022-10-16T03:18:33;11.53;;;3.07;;
3155;SDS011;1588;50.892;7.082;2022-10-16T03:23:44;10.33;;;2.73;;
3155;SDS011;1588;50.892;7.082;2022-10-16T03:28:47;4.17;;;3.13;;
3155;SDS011;1588;50.892;7.082;2022-10-16T03:33:54;9.30;;;2.80;;
3155;SDS011;1588;50.892;7.082;2022-10-16T03:38:56;6.50;;;2.40;;
3155;SDS011;1588;50.892;7.082;2022-10-16T03:43:59;10.53;;;2.73;;
3155;SDS011;1588;50.892;7.082;2022-10-16T03:49:21;13.00;;;2.70;;
3155;SDS011;1588;50.892;7.082;2022-10-16T03:54:42;4.10;;;2.30;;
3155;SDS011;1588;50.892;7.082;2022-10-16T03:59:45;6.30;;;2.27;;
3155;SDS011;1588;50.892;7.082;2022-10-16T04:04:48;2.30;;;2.10;;
3155;SDS011;1588;50.892;7.082;2022-10-16T04:09:51;3.90;;;2.80;;
3155;SDS011;1588;50.892;7.082;2022-10-16T04:14:53;3.00;;;2.10;;
3155;SDS011;1588;50.892;7.082;2022-10-16T04:19:57;2.23;;;1.90;;
3155;SDS011;1588;50.892;7.082;2022-10-16T04:24:59;2.70;;;1.90;;
3155;SDS011;1588;50.892;7.082;2022-10-16T04:30:04;3.63;;;1.87;;
3155;SDS011;1588;50.892;7.082;2022-10-16T04:35:08;8.17;;;2.17;;
3155;SDS011;1588;50.892;7.082;2022-10-16T04:40:10;3.43;;;1.80;;
3155;SDS011;1588;50.892;7.082;2022-10-16T04:45:13;4.40;;;2.07;;
3155;SDS011;1588;50.892;7.082;2022-10-16T04:50:27;3.43;;;1.87;;
3155;SDS011;1588;50.892;7.082;2022-10-16T04:55:29;2.80;;;2.10;;
3155;SDS011;1588;50.892;7.082;2022-10-16T05:00:32;6.90;;;1.80;;
3155;SDS011;1588;50.892;7.082;2022-10-16T05:05:45;3.20;;;1.70;;
3155;SDS011;1588;50.892;7.082;2022-10-16T05:10:47;8.10;;;1.73;;
3155;SDS011;1588;50.892;7.082;2022-10-16T05:15:50;1.70;;;1.60;;
3155;SDS011;1588;50.892;7.082;2022-10-16T05:20:53;5.80;;;1.40;;
3155;SDS011;1588;50.892;7.082;2022-10-16T05:25:56;2.90;;;1.70;;
3155;SDS011;1588;50.892;7.082;2022-10-16T05:30:59;2.03;;;1.50;;
3155;SDS011;1588;50.892;7.082;2022-10-16T05:36:09;7.70;;;1.67;;
3155;SDS011;1588;50.892;7.082;2022-10-16T05:41:12;3.03;;;1.87;;
3155;SDS011;1588;50.892;7.082;2022-10-16T05:46:33;5.43;;;2.10;;
3155;SDS011;1588;50.892;7.082;2022-10-16T05:51:36;5.20;;;1.47;;
3155;SDS011;1588;50.892;7.082;2022-10-16T05:56:39;3.60;;;1.90;;
3155;SDS011;1588;50.892;7.082;2022-10-16T06:01:41;2.67;;;1.90;;
3155;SDS011;1588;50.892;7.082;2022-10-16T06:06:45;5.33;;;2.00;;
3155;SDS011;1588;50.892;7.082;2022-10-16T06:11:47;2.30;;;2.10;;
3155;SDS011;1588;50.892;7.082;2022-10-16T06:16:50;2.13;;;1.93;;
3155;SDS011;1588;50.892;7.082;2022-10-16T06:21:53;2.70;;;2.20;;
3155;SDS011;1588;50.892;7.082;2022-10-16T06:26:58;2.70;;;2.43;;
3155;SDS011;1588;50.892;7.082;2022-10-16T06:32:00;8.77;;;2.63;;
3155;SDS011;1588;50.892;7.082;2022-10-16T06:37:04;5.43;;;2.47;;
3155;SDS011;1588;50.892;7.082;2022-10-16T06:42:06;2.70;;;2.00;;
3155;SDS011;1588;50.892;7.082;2022-10-16T06:47:08;4.60;;;2.50;;
3155;SDS011;1588;50.892;7.082;2022-10-16T06:52:12;4.10;;;2.63;;
3155;SDS011;1588;50.892;7.082;2022-10-16T06:57:19;4.00;;;3.17;;
3155;SDS011;1588;50.892;7.082;2022-10-16T07:02:21;8.07;;;3.03;;
3155;SDS011;1588;50.892;7.082;2022-10-16T07:07:25;4.70;;;2.60;;
3155;SDS011;1588;50.892;7.082;2022-10-16T07:12:28;4.10;;;2.87;;
3155;SDS011;1588;50.892;7.082;2022-10-16T07:17:30;2.90;;;2.70;;
3155;SDS011;1588;50.892;7.082;2022-10-16T07:22:34;8.40;;;3.30;;
3155;SDS011;1588;50.892;7.082;2022-10-16T07:27:36;4.07;;;2.77;;
3155;SDS011;1588;50.892;7.082;2022-10-16T07:32:38;4.50;;;2.77;;
3155;SDS011;1588;50.892;7.082;2022-10-16T07:37:45;3.27;;;2.83;;
3155;SDS011;1588;50.892;7.082;2022-10-16T07:42:47;10.63;;;3.10;;
3155;SDS011;1588;50.892;7.082;2022-10-16T07:47:49;3.40;;;2.63;;
3155;SDS011;1588;50.892;7.082;2022-10-16T07:52:53;2.70;;;2.50;;
3155;SDS011;1588;50.892;7.082;2022-10-16T07:57:55;4.23;;;2.23;;
3155;SDS011;1588;50.892;7.082;2022-10-16T08:02:57;6.93;;;2.33;;
3155;SDS011;1588;50.892;7.082;2022-10-16T08:08:04;8.70;;;3.00;;
3155;SDS011;1588;50.892;7.082;2022-10-16T08:13:07;4.80;;;2.30;;
3155;SDS011;1588;50.892;7.082;2022-10-16T08:18:09;2.50;;;2.27;;
3155;SDS011;1588;50.892;7.082;2022-10-16T08:23:18;2.40;;;1.73;;
3155;SDS011;1588;50.892;7.082;2022-10-16T08:28:21;11.30;;;1.60;;
3155;SDS011;1588;50.892;7.082;2022-10-16T08:33:29;1.63;;;1.53;;
3155;SDS011;1588;50.892;7.082;2022-10-16T08:38:33;11.83;;;1.70;;
3155;SDS011;1588;50.892;7.082;2022-10-16T08:43:42;4.77;;;1.37;;
3155;SDS011;1588;50.892;7.082;2022-10-16T08:48:57;2.80;;;1.40;;
3155;SDS011;1588;50.892;7.082;2022-10-16T08:54:11;1.60;;;1.03;;
3155;SDS011;1588;50.892;7.082;2022-10-16T08:59:25;1.57;;;0.93;;
3155;SDS011;1588;50.892;7.082;2022-10-16T09:10:05;2.70;;;1.03;;
3155;SDS011;1588;50.892;7.082;2022-10-16T09:15:29;3.03;;;0.90;;
3155;SDS011;1588;50.892;7.082;2022-10-16T09:20:42;1.00;;;0.90;;
3155;SDS011;1588;50.892;7.082;2022-10-16T09:25:58;5.60;;;1.00;;
3155;SDS011;1588;50.892;7.082;2022-10-16T09:31:01;3.10;;;0.90;;
3155;SDS011;1588;50.892;7.082;2022-10-16T09:36:06;0.97;;;0.77;;
3155;SDS011;1588;50.892;7.082;2022-10-16T09:41:19;3.90;;;0.83;;
3155;SDS011;1588;50.892;7.082;2022-10-16T09:46:28;3.10;;;0.80;;
3155;SDS011;1588;50.892;7.082;2022-10-16T09:51:32;1.00;;;0.90;;
3155;SDS011;1588;50.892;7.082;2022-10-16T09:56:37;3.10;;;1.00;;
3155;SDS011;1588;50.892;7.082;2022-10-16T10:01:41;0.80;;;0.70;;
3155;SDS011;1588;50.892;7.082;2022-10-16T10:06:46;4.77;;;1.00;;
3155;SDS011;1588;50.892;7.082;2022-10-16T10:11:52;1.10;;;0.70;;
3155;SDS011;1588;50.892;7.082;2022-10-16T10:17:07;2.30;;;0.80;;
3155;SDS011;1588;50.892;7.082;2022-10-16T10:22:16;1.33;;;0.70;;
3155;SDS011;1588;50.892;7.082;2022-10-16T10:27:25;1.17;;;0.90;;
3155;SDS011;1588;50.892;7.082;2022-10-16T10:32:37;1.63;;;0.70;;
3155;SDS011;1588;50.892;7.082;2022-10-16T10:37:59;1.43;;;0.80;;
3155;SDS011;1588;50.892;7.082;2022-10-16T10:43:13;1.50;;;1.10;;
3155;SDS011;1588;50.892;7.082;2022-10-16T10:48:26;3.47;;;1.00;;
3155;SDS011;1588;50.892;7.082;2022-10-16T10:53:54;8.90;;;0.80;;
3155;SDS011;1588;50.892;7.082;2022-10-16T10:59:19;1.30;;;0.93;;
3155;SDS011;1588;50.892;7.082;2022-10-16T11:04:37;2.00;;;0.60;;
3155;SDS011;1588;50.892;7.082;2022-10-16T11:09:55;5.03;;;0.83;;
3155;SDS011;1588;50.892;7.082;2022-10-16T11:15:03;3.20;;;0.80;;
3155;SDS011;1588;50.892;7.082;2022-10-16T11:20:16;1.57;;;0.70;;
3155;SDS011;1588;50.892;7.082;2022-10-16T11:25:22;2.37;;;0.80;;
3155;SDS011;1588;50.892;7.082;2022-10-16T11:30:39;1.10;;;0.80;;
3155;SDS011;1588;50.892;7.082;2022-10-16T11:35:46;2.87;;;0.63;;
3155;SDS011;1588;50.892;7.082;2022-10-16T11:40:53;1.00;;;0.60;;
3155;SDS011;1588;50.892;7.082;2022-10-16T11:46:01;0.70;;;0.60;;
3155;SDS011;1588;50.892;7.082;2022-10-16T11:51:11;3.83;;;0.90;;
3155;SDS011;1588;50.892;7.082;2022-10-16T11:56:20;1.97;;;0.60;;
3155;SDS011;1588;50.892;7.082;2022-10-16T12:01:27;1.10;;;0.70;;
3155;SDS011;1588;50.892;7.082;2022-10-16T12:06:34;1.23;;;0.77;;
3155;SDS011;1588;50.892;7.082;2022-10-16T12:11:42;1.63;;;0.80;;
3155;SDS011;1588;50.892;7.082;2022-10-16T12:16:53;4.03;;;1.10;;
3155;SDS011;1588;50.892;7.082;2022-10-16T12:21:57;3.47;;;1.00;;
3155;SDS011;1588;50.892;7.082;2022-10-16T12:27:01;1.90;;;0.60;;
3155;SDS011;1588;50.892;7.082;2022-10-16T12:32:27;1.20;;;0.90;;
3155;SDS011;1588;50.892;7.082;2022-10-16T12:37:40;1.30;;;0.80;;
3155;SDS011;1588;50.892;7.082;2022-10-16T12:42:57;1.73;;;0.80;;
3155;SDS011;1588;50.892;7.082;2022-10-16T12:48:28;1.10;;;0.80;;
3155;SDS011;1588;50.892;7.082;2022-10-16T12:53:41;3.80;;;0.70;;
3155;SDS011;1588;50.892;7.082;2022-10-16T12:58:54;1.63;;;0.90;;
3155;SDS011;1588;50.892;7.082;2022-10-16T13:15:47;0.70;;;0.60;;
3155;SDS011;1588;50.892;7.082;2022-10-16T13:21:16;0.80;;;0.60;;
3155;SDS011;1588;50.892;7.082;2022-10-16T13:26:31;12.27;;;6.70;;
3155;SDS011;1588;50.892;7.082;2022-10-16T13:31:42;1.53;;;0.90;;
3155;SDS011;1588;50.892;7.082;2022-10-16T13:36:46;1.33;;;0.80;;
3155;SDS011;1588;50.892;7.082;2022-10-16T13:42:05;1.43;;;0.70;;
3155;SDS011;1588;50.892;7.082;2022-10-16T13:47:16;3.90;;;0.83;;
3155;SDS011;1588;50.892;7.082;2022-10-16T13:52:20;1.40;;;0.80;;
3155;SDS011;1588;50.892;7.082;2022-10-16T13:57:24;1.80;;;0.80;;
3155;SDS011;1588;50.892;7.082;2022-10-16T14:02:27;5.80;;;1.00;;
3155;SDS011;1588;50.892;7.082;2022-10-16T14:07:37;1.27;;;0.90;;
3155;SDS011;1588;50.892;7.082;2022-10-16T14:12:42;1.83;;;0.70;;
3155;SDS011;1588;50.892;7.082;2022-10-16T14:17:45;0.80;;;0.80;;
3155;SDS011;1588;50.892;7.082;2022-10-16T14:22:57;1.63;;;0.60;;
3155;SDS011;1588;50.892;7.082;2022-10-16T14:28:03;3.10;;;1.00;;
3155;SDS011;1588;50.892;7.082;2022-10-16T14:33:18;0.77;;;0.70;;
3155;SDS011;1588;50.892;7.082;2022-10-16T14:38:27;1.37;;;0.80;;
3155;SDS011;1588;50.892;7.082;2022-10-16T14:43:33;0.70;;;0.70;;
3155;SDS011;1588;50.892;7.082;2022-10-16T14:48:39;1.27;;;0.97;;
3155;SDS011;1588;50.892;7.082;2022-10-16T14:53:45;1.40;;;0.80;;
3155;SDS011;1588;50.892;7.082;2022-10-16T14:58:49;6.23;;;1.00;;
3155;SDS011;1588;50.892;7.082;2022-10-16T15:03:56;1.30;;;0.90;;
3155;SDS011;1588;50.892;7.082;2022-10-16T15:08:58;0.70;;;0.70;;
3155;SDS011;1588;50.892;7.082;2022-10-16T15:14:02;4.40;;;0.83;;
3155;SDS011;1588;50.892;7.082;2022-10-16T15:19:04;5.30;;;1.50;;
3155;SDS011;1588;50.892;7.082;2022-10-16T15:24:08;1.63;;;1.10;;
3155;SDS011;1588;50.892;7.082;2022-10-16T15:29:14;1.40;;;1.30;;
3155;SDS011;1588;50.892;7.082;2022-10-16T15:34:18;4.23;;;1.50;;
3155;SDS011;1588;50.892;7.082;2022-10-16T15:39:20;2.30;;;1.60;;
3155;SDS011;1588;50.892;7.082;2022-10-16T15:44:24;1.20;;;1.10;;
3155;SDS011;1588;50.892;7.082;2022-10-16T15:49:30;2.30;;;1.17;;
3155;SDS011;1588;50.892;7.082;2022-10-16T15:54:42;9.10;;;1.10;;
3155;SDS011;1588;50.892;7.082;2022-10-16T15:59:47;3.20;;;1.17;;
3155;SDS011;1588;50.892;7.082;2022-10-16T16:04:49;1.57;;;1.13;;
3155;SDS011;1588;50.892;7.082;2022-10-16T16:09:51;1.13;;;1.03;;
3155;SDS011;1588;50.892;7.082;2022-10-16T16:14:55;2.73;;;1.10;;
3155;SDS011;1588;50.892;7.082;2022-10-16T16:19:58;1.77;;;1.30;;
3155;SDS011;1588;50.892;7.082;2022-10-16T16:25:00;1.00;;;0.90;;
3155;SDS011;1588;50.892;7.082;2022-10-16T16:30:04;1.20;;;1.00;;
3155;SDS011;1588;50.892;7.082;2022-10-16T16:35:17;1.20;;;1.07;;
3155;SDS011;1588;50.892;7.082;2022-10-16T16:40:20;1.80;;;1.07;;
3155;SDS011;1588;50.892;7.082;2022-10-16T16:45:23;3.00;;;1.20;;
3155;SDS011;1588;50.892;7.082;2022-10-16T16:50:26;1.73;;;1.20;;
3155;SDS011;1588;50.892;7.082;2022-10-16T16:55:28;3.47;;;1.27;;
3155;SDS011;1588;50.892;7.082;2022-10-16T17:00:32;2.00;;;1.50;;
3155;SDS011;1588;50.892;7.082;2022-10-16T17:05:34;1.23;;;1.10;;
3155;SDS011;1588;50.892;7.082;2022-10-16T17:10:41;2.37;;;1.10;;
3155;SDS011;1588;50.892;7.082;2022-10-16T17:15:46;2.90;;;1.37;;
3155;SDS011;1588;50.892;7.082;2022-10-16T17:20:49;2.33;;;1.20;;
3155;SDS011;1588;50.892;7.082;2022-10-16T17:25:52;7.30;;;1.40;;
3155;SDS011;1588;50.892;7.082;2022-10-16T17:30:56;2.60;;;1.30;;
3155;SDS011;1588;50.892;7.082;2022-10-16T17:36:07;2.97;;;1.30;;
3155;SDS011;1588;50.892;7.082;2022-10-16T17:41:17;2.70;;;1.20;;
3155;SDS011;1588;50.892;7.082;2022-10-16T17:46:23;1.83;;;1.10;;
3155;SDS011;1588;50.892;7.082;2022-10-16T17:51:33;4.20;;;1.20;;
3155;SDS011;1588;50.892;7.082;2022-10-16T17:56:36;1.73;;;1.50;;
3155;SDS011;1588;50.892;7.082;2022-10-16T18:01:40;1.70;;;1.50;;
3155;SDS011;1588;50.892;7.082;2022-10-16T18:06:45;6.10;;;1.43;;
3155;SDS011;1588;50.892;7.082;2022-10-16T18:11:48;2.17;;;1.57;;
3155;SDS011;1588;50.892;7.082;2022-10-16T18:16:57;4.20;;;1.53;;
3155;SDS011;1588;50.892;7.082;2022-10-16T18:22:00;3.03;;;1.47;;
3155;SDS011;1588;50.892;7.082;2022-10-16T18:27:02;1.63;;;1.30;;
3155;SDS011;1588;50.892;7.082;2022-10-16T18:32:07;1.70;;;1.50;;
3155;SDS011;1588;50.892;7.082;2022-10-16T18:37:09;1.20;;;1.10;;
3155;SDS011;1588;50.892;7.082;2022-10-16T18:42:13;1.53;;;1.17;;
3155;SDS011;1588;50.892;7.082;2022-10-16T18:47:17;5.13;;;1.60;;
3155;SDS011;1588;50.892;7.082;2022-10-16T18:52:20;1.80;;;1.40;;
3155;SDS011;1588;50.892;7.082;2022-10-16T18:57:44;4.40;;;1.70;;
3155;SDS011;1588;50.892;7.082;2022-10-16T19:02:47;1.63;;;1.40;;
3155;SDS011;1588;50.892;7.082;2022-10-16T19:07:50;1.93;;;1.30;;
3155;SDS011;1588;50.892;7.082;2022-10-16T19:12:52;2.60;;;1.70;;
3155;SDS011;1588;50.892;7.082;2022-10-16T19:17:56;1.53;;;1.40;;
3155;SDS011;1588;50.892;7.082;2022-10-16T19:22:58;2.13;;;1.40;;
3155;SDS011;1588;50.892;7.082;2022-10-16T19:28:02;3.10;;;1.73;;
3155;SDS011;1588;50.892;7.082;2022-10-16T19:33:08;2.33;;;1.53;;
3155;SDS011;1588;50.892;7.082;2022-10-16T19:38:10;2.30;;;1.60;;
3155;SDS011;1588;50.892;7.082;2022-10-16T19:43:13;2.97;;;1.60;;
3155;SDS011;1588;50.892;7.082;2022-10-16T19:48:21;3.43;;;1.70;;
3155;SDS011;1588;50.892;7.082;2022-10-16T19:53:24;2.30;;;1.73;;
3155;SDS011;1588;50.892;7.082;2022-10-16T19:58:30;3.07;;;2.77;;
3155;SDS011;1588;50.892;7.082;2022-10-16T20:03:36;3.73;;;2.50;;
3155;SDS011;1588;50.892;7.082;2022-10-16T20:08:58;6.30;;;2.50;;
3155;SDS011;1588;50.892;7.082;2022-10-16T20:14:01;4.13;;;2.43;;
3155;SDS011;1588;50.892;7.082;2022-10-16T20:19:05;2.93;;;2.17;;
3155;SDS011;1588;50.892;7.082;2022-10-16T20:24:08;4.50;;;2.40;;
3155;SDS011;1588;50.892;7.082;2022-10-16T20:29:10;4.60;;;2.83;;
3155;SDS011;1588;50.892;7.082;2022-10-16T20:34:14;5.17;;;2.50;;
3155;SDS011;1588;50.892;7.082;2022-10-16T20:39:17;11.43;;;2.47;;
3155;SDS011;1588;50.892;7.082;2022-10-16T20:44:19;3.63;;;2.90;;
3155;SDS011;1588;50.892;7.082;2022-10-16T20:49:23;13.67;;;2.73;;
3155;SDS011;1588;50.892;7.082;2022-10-16T20:54:28;4.90;;;2.73;;
3155;SDS011;1588;50.892;7.082;2022-10-16T20:59:30;7.23;;;3.20;;
3155;SDS011;1588;50.892;7.082;2022-10-16T21:04:34;5.03;;;3.07;;
3155;SDS011;1588;50.892;7.082;2022-10-16T21:09:41;6.00;;;2.80;;
3155;SDS011;1588;50.892;7.082;2022-10-16T21:14:47;6.87;;;3.70;;
3155;SDS011;1588;50.892;7.082;2022-10-16T21:19:51;6.43;;;3.43;;
3155;SDS011;1588;50.892;7.082;2022-10-16T21:24:53;10.83;;;3.37;;
3155;SDS011;1588;50.892;7.082;2022-10-16T21:29:56;4.07;;;3.40;;
3155;SDS011;1588;50.892;7.082;2022-10-16T21:35:06;4.17;;;3.67;;
3155;SDS011;1588;50.892;7.082;2022-10-16T21:40:09;15.80;;;3.17;;
3155;SDS011;1588;50.892;7.082;2022-10-16T21:45:12;4.07;;;3.00;;
3155;SDS011;1588;50.892;7.082;2022-10-16T21:50:15;8.43;;;3.30;;
3155;SDS011;1588;50.892;7.082;2022-10-16T21:55:18;6.50;;;3.70;;
3155;SDS011;1588;50.892;7.082;2022-10-16T22:00:20;10.63;;;3.23;;
3155;SDS011;1588;50.892;7.082;2022-10-16T22:05:24;12.10;;;4.27;;
3155;SDS011;1588;50.892;7.082;2022-10-16T22:10:26;7.10;;;3.73;;
3155;SDS011;1588;50.892;7.082;2022-10-16T22:15:29;6.23;;;4.53;;
3155;SDS011;1588;50.892;7.082;2022-10-16T22:20:33;10.07;;;4.43;;
3155;SDS011;1588;50.892;7.082;2022-10-16T22:25:35;14.60;;;4.97;;
3155;SDS011;1588;50.892;7.082;2022-10-16T22:30:38;9.00;;;4.47;;
3155;SDS011;1588;50.892;7.082;2022-10-16T22:35:42;9.20;;;4.40;;
3155;SDS011;1588;50.892;7.082;2022-10-16T22:40:44;7.37;;;4.80;;
3155;SDS011;1588;50.892;7.082;2022-10-16T22:45:47;9.83;;;5.43;;
3155;SDS011;1588;50.892;7.082;2022-10-16T22:50:50;7.90;;;5.07;;
3155;SDS011;1588;50.892;7.082;2022-10-16T22:55:54;14.40;;;6.87;;
3155;SDS011;1588;50.892;7.082;2022-10-16T23:00:57;9.07;;;6.10;;
3155;SDS011;1588;50.892;7.082;2022-10-16T23:06:03;8.43;;;5.60;;
3155;SDS011;1588;50.892;7.082;2022-10-16T23:11:06;9.43;;;5.70;;
3155;SDS011;1588;50.892;7.082;2022-10-16T23:16:10;10.57;;;5.77;;
3155;SDS011;1588;50.892;7.082;2022-10-16T23:21:16;10.00;;;6.50;;
3155;SDS011;1588;50.892;7.082;2022-10-16T23:26:19;9.63;;;6.73;;
3155;SDS011;1588;50.892;7.082;2022-10-16T23:31:23;9.20;;;6.00;;
3155;SDS011;1588;50.892;7.082;2022-10-16T23:36:27;10.60;;;6.33;;
3155;SDS011;1588;50.892;7.082;2022-10-16T23:41:33;13.30;;;6.87;;
3155;SDS011;1588;50.892;7.082;2022-10-16T23:46:35;10.47;;;6.67;;
3155;SDS011;1588;50.892;7.082;2022-10-16T23:51:39;8.60;;;5.83;;
3155;SDS011;1588;50.892;7.082;2022-10-16T23:56:41;10.70;;;6.97;;
